createdAt,value
2022-12-01T11:20:43.917Z,14.27
2022-12-01T11:23:24.494Z,16.30
2022-12-01T11:26:01.537Z,16.70
2022-12-01T11:28:29.561Z,14.38
2022-12-01T11:31:04.108Z,13.25
2022-12-01T11:33:38.192Z,12.30
2022-12-01T11:36:06.051Z,13.35
2022-12-01T11:38:34.766Z,14.30
2022-12-01T11:41:02.107Z,11.50
2022-12-01T11:43:33.055Z,11.65
2022-12-01T11:46:04.426Z,9.30
2022-12-01T11:48:37.068Z,9.43
2022-12-01T11:51:06.460Z,9.88
2022-12-01T11:53:36.528Z,8.07
2022-12-01T11:56:23.692Z,8.60
2022-12-01T11:59:03.459Z,7.80
2022-12-01T12:01:39.738Z,7.93
2022-12-01T12:04:12.724Z,7.70
2022-12-01T12:07:01.355Z,7.70
2022-12-01T12:09:44.943Z,7.50
2022-12-01T12:12:45.433Z,8.20
2022-12-01T12:15:36.934Z,7.18
2022-12-01T12:18:13.129Z,6.95
2022-12-01T12:20:55.103Z,7.35
2022-12-01T12:23:37.204Z,7.93
2022-12-01T12:26:29.283Z,8.25
2022-12-01T12:29:13.491Z,7.80
2022-12-01T12:32:02.109Z,7.97
2022-12-01T12:35:00.497Z,8.40
2022-12-01T12:37:46.052Z,8.32
2022-12-01T12:40:18.755Z,9.48
2022-12-01T12:43:18.090Z,8.90
2022-12-01T12:46:16.305Z,10.80
2022-12-01T12:49:19.791Z,8.80
2022-12-01T12:52:08.150Z,9.77
2022-12-01T12:54:50.840Z,9.90
2022-12-01T12:57:31.537Z,8.50
2022-12-01T13:00:13.541Z,8.50
2022-12-01T13:03:13.345Z,8.57
2022-12-01T13:05:49.516Z,11.20
2022-12-01T13:08:47.967Z,12.27
2022-12-01T13:11:32.682Z,11.18
2022-12-01T13:14:38.146Z,13.30
2022-12-01T13:17:49.414Z,21.65
2022-12-01T13:20:19.442Z,14.15
2022-12-01T13:22:47.592Z,15.60
2022-12-01T13:25:18.128Z,13.70
2022-12-01T13:27:47.552Z,13.15
2022-12-01T13:30:26.402Z,13.00
2022-12-01T13:33:03.456Z,11.55
2022-12-01T13:35:37.029Z,11.65
2022-12-01T13:38:39.967Z,11.10
2022-12-01T13:41:19.271Z,10.00
2022-12-01T13:44:03.961Z,9.68
2022-12-01T13:46:49.830Z,9.73
2022-12-01T13:49:40.693Z,9.38
2022-12-01T13:52:21.133Z,10.25
2022-12-01T13:55:10.075Z,11.18
2022-12-01T13:57:44.060Z,10.13
2022-12-01T14:00:34.855Z,11.00
2022-12-01T14:03:20.397Z,11.20
2022-12-01T14:05:53.837Z,10.27
2022-12-01T14:08:33.439Z,11.18
2022-12-01T14:11:18.480Z,10.52
2022-12-01T14:14:25.845Z,13.45
2022-12-01T14:17:01.155Z,12.02
2022-12-01T14:19:46.274Z,12.27
2022-12-01T14:22:44.192Z,14.38
2022-12-01T14:25:20.579Z,12.93
2022-12-01T14:27:51.076Z,13.27
2022-12-01T14:30:40.099Z,12.65
2022-12-01T14:33:47.816Z,15.15
2022-12-01T14:36:23.979Z,13.90
2022-12-01T14:39:03.555Z,12.55
2022-12-01T14:41:41.630Z,12.10
2022-12-01T14:44:31.872Z,13.55
2022-12-01T14:47:11.016Z,12.15
2022-12-01T14:49:54.016Z,12.18
2022-12-01T14:52:27.170Z,9.80
2022-12-01T14:55:01.734Z,10.33
2022-12-01T14:57:34.436Z,10.18
2022-12-01T15:00:12.506Z,12.07
2022-12-01T15:03:03.293Z,12.75
2022-12-01T15:05:39.621Z,11.95
2022-12-01T15:09:04.036Z,16.42
2022-12-01T15:11:22.061Z,16.45
2022-12-01T15:13:50.318Z,20.10
2022-12-01T15:16:20.933Z,16.42
2022-12-01T15:18:49.315Z,23.92
2022-12-01T15:21:24.166Z,18.95
2022-12-01T15:24:03.559Z,14.65
2022-12-01T15:26:34.304Z,15.40
2022-12-01T15:29:05.626Z,17.15
2022-12-01T15:31:34.201Z,18.27
2022-12-01T15:34:01.591Z,20.80
2022-12-01T15:36:28.906Z,22.10
2022-12-01T15:39:00.981Z,27.08
2022-12-01T15:41:31.194Z,21.83
2022-12-01T15:44:03.776Z,26.38
2022-12-01T15:46:37.487Z,24.15
2022-12-01T15:49:08.671Z,15.65
2022-12-01T15:51:36.429Z,19.77
2022-12-01T15:54:04.524Z,31.55
2022-12-01T15:56:37.837Z,42.22
2022-12-01T15:59:09.839Z,33.55
2022-12-01T16:01:37.896Z,33.38
2022-12-01T16:04:16.555Z,21.33
2022-12-01T16:06:51.974Z,12.55
2022-12-01T16:09:26.440Z,22.60
2022-12-01T16:12:20.724Z,20.45
2022-12-01T16:14:56.398Z,21.52
2022-12-01T16:17:24.723Z,12.95
2022-12-01T16:20:18.250Z,18.38
2022-12-01T18:22:39.841Z,23.27
2022-12-01T18:25:07.301Z,18.10
2022-12-01T18:27:34.551Z,21.70
2022-12-01T18:30:01.764Z,13.77
2022-12-01T18:32:29.019Z,12.70
2022-12-01T18:34:56.185Z,12.65
2022-12-01T18:37:23.348Z,19.98
2022-12-01T18:39:50.608Z,11.82
2022-12-01T18:42:17.872Z,11.18
2022-12-01T18:44:44.974Z,14.70
2022-12-01T18:47:12.247Z,11.35
2022-12-01T18:49:39.574Z,15.00
2022-12-01T18:52:06.768Z,12.55
2022-12-01T18:54:35.876Z,12.70
2022-12-01T18:57:03.110Z,12.60
2022-12-01T18:59:30.372Z,12.93
2022-12-01T19:01:57.551Z,11.60
2022-12-01T19:04:24.778Z,12.30
2022-12-01T19:06:51.955Z,12.05
2022-12-01T19:09:19.515Z,11.02
2022-12-01T19:11:47.018Z,13.43
2022-12-01T19:14:17.024Z,14.18
2022-12-01T19:16:45.282Z,11.27
2022-12-01T19:19:12.840Z,12.90
2022-12-01T19:21:39.940Z,12.93
2022-12-01T19:24:07.459Z,11.20
2022-12-01T19:26:34.678Z,10.60
2022-12-01T19:29:01.808Z,14.07
2022-12-01T19:31:29.080Z,12.15
2022-12-01T19:33:56.709Z,21.30
2022-12-01T19:36:26.809Z,15.07
2022-12-01T19:39:00.430Z,15.95
2022-12-01T19:41:28.744Z,16.17
2022-12-01T19:43:56.349Z,17.67
2022-12-01T19:46:25.300Z,15.65
2022-12-01T19:48:58.944Z,21.25
2022-12-01T19:51:36.791Z,10.80
2022-12-01T19:54:06.587Z,12.77
2022-12-01T19:56:34.578Z,16.05
2022-12-01T19:59:01.851Z,11.77
2022-12-01T20:01:29.252Z,15.73
2022-12-01T20:03:56.594Z,15.27
2022-12-01T20:06:29.113Z,20.23
2022-12-01T20:09:01.352Z,12.00
2022-12-01T20:11:35.636Z,15.10
2022-12-01T20:14:05.073Z,14.77
2022-12-01T20:16:32.548Z,15.63
2022-12-01T20:19:04.320Z,19.07
2022-12-01T20:21:39.402Z,13.57
2022-12-01T20:24:07.921Z,13.35
2022-12-01T20:26:45.205Z,28.10
2022-12-01T20:29:15.647Z,11.70
2022-12-01T20:31:43.461Z,14.93
2022-12-01T20:34:15.099Z,12.17
2022-12-01T20:36:42.790Z,11.60
2022-12-01T20:39:12.026Z,15.67
2022-12-01T20:41:40.239Z,11.40
2022-12-01T20:44:08.455Z,11.60
2022-12-01T20:46:37.371Z,12.40
2022-12-01T20:49:05.669Z,10.13
2022-12-01T20:51:33.585Z,15.17
2022-12-01T20:54:26.882Z,11.77
2022-12-01T20:56:49.353Z,13.70
2022-12-01T20:59:17.996Z,15.20
2022-12-01T21:01:45.300Z,11.63
2022-12-01T21:04:12.469Z,13.40
2022-12-01T21:06:39.650Z,12.80
2022-12-01T21:09:07.741Z,12.37
2022-12-01T21:12:07.209Z,11.52
2022-12-01T21:14:54.221Z,11.03
2022-12-01T21:17:35.555Z,11.40
2022-12-01T21:20:21.830Z,11.17
2022-12-01T21:22:51.332Z,11.90
2022-12-01T21:25:22.520Z,9.83
2022-12-01T21:27:50.347Z,11.23
2022-12-01T21:30:21.205Z,12.27
2022-12-01T21:32:49.820Z,11.10
2022-12-01T21:35:24.981Z,10.83
2022-12-01T21:37:59.249Z,9.83
2022-12-01T21:40:27.190Z,12.15
2022-12-01T21:42:55.241Z,12.02
2022-12-01T21:45:30.108Z,12.95
2022-12-01T21:48:24.025Z,10.98
2022-12-01T21:51:05.055Z,12.45
2022-12-01T21:53:37.205Z,10.10
2022-12-01T21:56:04.566Z,10.75
2022-12-01T21:58:36.561Z,10.85
2022-12-01T22:01:17.099Z,11.35
2022-12-01T22:03:46.200Z,13.60
2022-12-01T22:06:31.113Z,15.02
2022-12-01T22:09:01.693Z,14.85
2022-12-01T22:11:30.724Z,16.05
2022-12-01T22:14:23.854Z,20.38
2022-12-01T22:17:17.852Z,20.93
2022-12-01T22:19:57.347Z,26.65
2022-12-01T22:22:29.328Z,38.93
2022-12-01T22:25:25.139Z,24.40
2022-12-01T22:27:52.713Z,26.43
2022-12-01T22:30:24.087Z,26.07
2022-12-01T22:32:57.352Z,21.60
2022-12-01T22:35:24.780Z,30.83
2022-12-01T22:38:08.873Z,35.20
2022-12-01T22:40:48.901Z,23.02
2022-12-01T22:43:16.113Z,21.92
2022-12-01T22:45:49.855Z,11.50
2022-12-01T22:48:40.254Z,12.05
2022-12-01T22:51:13.514Z,11.83
2022-12-01T22:53:42.214Z,14.00
2022-12-01T22:56:33.807Z,17.60
2022-12-01T22:59:03.410Z,12.50
2022-12-01T23:01:32.870Z,13.53
2022-12-01T23:04:20.635Z,13.90
2022-12-01T23:07:21.032Z,13.37
2022-12-01T23:09:48.432Z,12.33
2022-12-01T23:12:27.088Z,12.23
2022-12-01T23:14:59.155Z,11.80
2022-12-01T23:17:33.027Z,10.90
2022-12-01T23:20:21.227Z,14.18
2022-12-01T23:22:48.827Z,27.70
2022-12-01T23:25:18.253Z,24.40
2022-12-01T23:27:49.087Z,26.25
2022-12-01T23:30:17.842Z,13.18
2022-12-01T23:32:46.793Z,15.45
2022-12-01T23:35:18.429Z,14.93
2022-12-01T23:37:48.165Z,15.23
2022-12-01T23:40:23.446Z,12.10
2022-12-01T23:42:51.364Z,15.07
2022-12-01T23:45:27.459Z,14.45
2022-12-01T23:47:56.898Z,10.50
2022-12-01T23:50:26.519Z,15.15
2022-12-01T23:52:54.527Z,13.98
2022-12-01T23:55:28.827Z,11.48
2022-12-01T23:57:56.868Z,12.73
